M I D A S
Marine Information and Data Acquisition System
Tripno 1805 of the Zeeleeuw from 2009-11-06 07:33:50 to 2009-11-06 14:23:38
Back to CruiseResearch ActivitiesStationsMapUnderway DataData graphs

EquipmentUnitsComment
TimeDGPSUTC
LatitudeDGPSDM.mWGS84
LongitudeDGPSDM.mWGS84
HeadingGyrodeg 
SOGDGPSknotsSpeed over ground
COGDGPSdegCourse over ground
DepthEcho soundermeters200 kHz
Missing or incorrect values are displayed as -999
Navigation data collected by the RV Zeeleeuw from 2009-11-06 07:29:44 to 2009-11-06 14:23:38
                                                                                    Next 1000 lines
Time Latitude Longitude Heading SOG COG Depth
2009-11-06 07:29:54 51°13.664 2°55.957 109.7 1 296 6.7
2009-11-06 07:29:59 51°13.665 2°55.954 109.6 1.5 296 6.7
2009-11-06 07:30:04 51°13.666 2°55.95 109.4 1.9 295 6.7
2009-11-06 07:30:09 51°13.668 2°55.946 109.4 2.2 296 -999
2009-11-06 07:30:15 51°13.669 2°55.94 109.2 2.4 295 -999
2009-11-06 07:30:21 51°13.671 2°55.934 108.7 2.6 294 -999
2009-11-06 07:30:26 51°13.673 2°55.928 108.1 2.8 292 -999
2009-11-06 07:30:32 51°13.675 2°55.921 107.4 3 291 -999
2009-11-06 07:30:38 51°13.676 2°55.913 106.5 3.1 290 -999
2009-11-06 07:30:43 51°13.678 2°55.906 105.6 3.2 288 -999
2009-11-06 07:30:48 51°13.679 2°55.899 104.6 3.3 288 -999
2009-11-06 07:30:53 51°13.681 2°55.892 104.2 3.3 287 -999
2009-11-06 07:30:57 51°13.682 2°55.887 104 3.4 286 -999
2009-11-06 07:31:03 51°13.683 2°55.878 103.9 3.5 286 -999
2009-11-06 07:31:08 51°13.685 2°55.87 104.1 3.6 287 -999
2009-11-06 07:31:13 51°13.686 2°55.863 104.3 3.6 287 -999
2009-11-06 07:31:17 51°13.687 2°55.857 104.4 3.5 287 -999
2009-11-06 07:31:22 51°13.689 2°55.849 103.7 3.4 286 -999
2009-11-06 07:31:28 51°13.69 2°55.841 102.9 3.3 286 -999
2009-11-06 07:31:33 51°13.691 2°55.834 102.4 3.3 286 -999
2009-11-06 07:31:38 51°13.692 2°55.827 101.7 3.4 285 -999
2009-11-06 07:31:42 51°13.693 2°55.821 101 3.3 286 -999
2009-11-06 07:31:48 51°13.695 2°55.812 100.2 3.3 285 -999
2009-11-06 07:31:53 51°13.696 2°55.806 99.4 3.3 285 -999
2009-11-06 07:31:58 51°13.697 2°55.799 98.4 3.2 284 -999
2009-11-06 07:32:02 51°13.698 2°55.793 97.1 3.2 284 -999
2009-11-06 07:32:08 51°13.699 2°55.785 95.9 3 283 -999
2009-11-06 07:32:13 51°13.7 2°55.779 93.9 3 282 -999
2009-11-06 07:32:18 51°13.7 2°55.773 91.9 2.8 281 -999
2009-11-06 07:32:22 51°13.701 2°55.768 89.9 2.7 280 -999
2009-11-06 07:32:28 51°13.701 2°55.761 88.3 2.6 278 -999
2009-11-06 07:32:33 51°13.702 2°55.756 86.5 2.4 278 -999
2009-11-06 07:32:38 51°13.703 2°55.751 84.2 2.2 277 -999
2009-11-06 07:32:42 51°13.703 2°55.748 82.5 1.9 276 12.4
2009-11-06 07:32:47 51°13.703 2°55.744 80.6 1.6 277 12.1
2009-11-06 07:32:52 51°13.703 2°55.741 78.6 1.3 281 12.3
2009-11-06 07:32:57 51°13.704 2°55.739 76.4 0.9 285 12.2
2009-11-06 07:33:02 51°13.704 2°55.738 73.4 0.8 294 12.1
2009-11-06 07:33:06 51°13.704 2°55.737 69 0.5 311 12.1
2009-11-06 07:33:11 51°13.705 2°55.737 65.8 0.5 338 12
2009-11-06 07:33:16 51°13.706 2°55.736 61.6 0.6 359 12
2009-11-06 07:33:21 51°13.707 2°55.736 57 0.7 6 12.2
2009-11-06 07:33:26 51°13.708 2°55.737 51.5 0.7 9 12.1
2009-11-06 07:33:30 51°13.708 2°55.737 47.8 0.8 12 12.1
2009-11-06 07:33:36 51°13.71 2°55.737 43.2 1 13 11.9
2009-11-06 07:33:41 51°13.711 2°55.738 38.7 1 12 11.9
2009-11-06 07:33:45 51°13.712 2°55.738 33.4 1 7 11.9
2009-11-06 07:33:50 51°13.713 2°55.738 30.2 0.9 3 12
2009-11-06 07:33:55 51°13.714 2°55.738 27.2 0.7 356 12
2009-11-06 07:34:00 51°13.715 2°55.737 24.2 0.5 330 11.9
2009-11-06 07:34:05 51°13.715 2°55.737 20.3 0.3 285 11.8
2009-11-06 07:34:10 51°13.715 2°55.736 17.8 0.4 258 11.7
2009-11-06 07:34:14 51°13.714 2°55.735 14.5 0.6 226 11.6
2009-11-06 07:34:19 51°13.713 2°55.734 12.5 0.8 221 11.6
2009-11-06 07:34:24 51°13.712 2°55.733 10.3 1 210 11.6
2009-11-06 07:34:29 51°13.711 2°55.731 8.4 1.1 208 11.5
2009-11-06 07:34:34 51°13.709 2°55.73 6.5 1.2 204 11.3
2009-11-06 07:34:39 51°13.708 2°55.729 4.7 1.2 203 -999
2009-11-06 07:34:45 51°13.706 2°55.728 2.9 1.1 203 4.7
2009-11-06 07:34:50 51°13.705 2°55.727 1.8 0.8 217 4.6
2009-11-06 07:34:54 51°13.705 2°55.726 0.4 0.4 262 11.9
2009-11-06 07:34:59 51°13.705 2°55.725 358.1 0.5 310 11.9
2009-11-06 07:35:04 51°13.706 2°55.724 353.8 0.9 324 11.6
2009-11-06 07:35:09 51°13.708 2°55.723 348.7 1.6 336 -999
2009-11-06 07:35:15 51°13.712 2°55.72 344.8 2.2 334 11.2
2009-11-06 07:35:19 51°13.715 2°55.718 341.5 2.7 335 11.1
2009-11-06 07:35:24 51°13.719 2°55.715 339.6 3.3 334 10.8
2009-11-06 07:35:29 51°13.724 2°55.712 338 3.7 334 10.9
2009-11-06 07:35:34 51°13.729 2°55.708 337.2 4 333 10.7
2009-11-06 07:35:39 51°13.734 2°55.703 336.8 4.5 334 11
2009-11-06 07:35:44 51°13.74 2°55.699 336.5 4.8 334 10.7
2009-11-06 07:35:49 51°13.747 2°55.694 336.8 5.1 335 10.9
2009-11-06 07:35:54 51°13.753 2°55.689 336.9 5.3 335 11
2009-11-06 07:35:59 51°13.76 2°55.683 336.9 5.5 334 10.8
2009-11-06 07:36:04 51°13.767 2°55.678 336.5 5.8 335 10.7
2009-11-06 07:36:09 51°13.775 2°55.672 336.5 6 335 10.6
2009-11-06 07:36:14 51°13.782 2°55.666 336.4 6.1 335 10.7
2009-11-06 07:36:19 51°13.791 2°55.661 336.3 6.4 335 10.6
2009-11-06 07:36:24 51°13.799 2°55.655 336.2 6.6 336 10.6
2009-11-06 07:36:29 51°13.808 2°55.648 336.1 6.8 336 10.4
2009-11-06 07:36:34 51°13.817 2°55.642 336.1 7 336 10.3
2009-11-06 07:36:39 51°13.826 2°55.636 336.1 7.1 336 10.3
2009-11-06 07:36:44 51°13.835 2°55.629 335.8 7.2 335 10.1
2009-11-06 07:36:49 51°13.845 2°55.622 335.8 7.3 336 9.8
2009-11-06 07:36:54 51°13.854 2°55.615 335.9 7.4 335 10.1
2009-11-06 07:36:59 51°13.863 2°55.608 335.4 7.5 334 10
2009-11-06 07:37:04 51°13.873 2°55.601 335.4 7.6 335 10.1
2009-11-06 07:37:09 51°13.883 2°55.594 335.6 7.7 335 10.1
2009-11-06 07:37:14 51°13.893 2°55.586 335.2 7.8 334 10.3
2009-11-06 07:37:19 51°13.902 2°55.579 334.7 7.9 335 10
2009-11-06 07:37:24 51°13.913 2°55.571 335.1 8 335 10
2009-11-06 07:37:29 51°13.923 2°55.564 335.6 8.1 336 10
2009-11-06 07:37:34 51°13.933 2°55.556 335.4 8.2 335 10
2009-11-06 07:37:39 51°13.943 2°55.548 335.4 8.3 336 10
2009-11-06 07:37:44 51°13.954 2°55.541 335.5 8.4 335 9.9
2009-11-06 07:37:49 51°13.965 2°55.533 335.5 8.4 335 9.9
2009-11-06 07:37:54 51°13.976 2°55.525 335.4 8.5 335 9.8
2009-11-06 07:37:59 51°13.986 2°55.517 335.2 8.5 335 9.8
2009-11-06 07:38:04 51°13.997 2°55.508 334.9 8.6 334 9.7
2009-11-06 07:38:09 51°14.007 2°55.5 334.9 8.5 335 9.6
2009-11-06 07:38:14 51°14.018 2°55.492 335 8.5 335 9.5
2009-11-06 07:38:19 51°14.029 2°55.484 334.9 8.6 334 9.3
2009-11-06 07:38:24 51°14.04 2°55.476 335 8.6 335 9.2
2009-11-06 07:38:29 51°14.051 2°55.467 335 8.7 334 9.4
2009-11-06 07:38:34 51°14.061 2°55.459 334.3 8.7 334 9.3
2009-11-06 07:38:38 51°14.07 2°55.452 334.3 8.7 334 9.4
2009-11-06 07:38:44 51°14.083 2°55.442 334 8.8 333 9.2
2009-11-06 07:38:49 51°14.094 2°55.432 333.4 8.8 332 9.1
2009-11-06 07:38:54 51°14.105 2°55.423 333.2 8.8 332 9.1
2009-11-06 07:38:59 51°14.115 2°55.414 332.8 8.9 331 9.4
2009-11-06 07:39:04 51°14.126 2°55.404 332 8.8 331 9.7
2009-11-06 07:39:09 51°14.137 2°55.395 332 8.8 331 9.7
2009-11-06 07:39:14 51°14.148 2°55.385 331.9 8.9 331 9.8
2009-11-06 07:39:19 51°14.158 2°55.375 331.1 8.9 329 9.8
2009-11-06 07:39:24 51°14.169 2°55.365 329.6 8.9 327 9.8
2009-11-06 07:39:29 51°14.179 2°55.353 327.8 9 325 9.8
2009-11-06 07:39:34 51°14.189 2°55.342 326.4 9 325 9.7
2009-11-06 07:39:39 51°14.199 2°55.33 325.2 9 324 9.5
2009-11-06 07:39:44 51°14.209 2°55.318 324.1 9 322 9.8
2009-11-06 07:39:49 51°14.219 2°55.305 323.1 9.1 321 9.7
2009-11-06 07:39:54 51°14.228 2°55.292 322 9.1 320 9.7
2009-11-06 07:39:59 51°14.238 2°55.279 320.9 9.1 319 9.8
2009-11-06 07:40:04 51°14.247 2°55.265 319.2 9.3 317 9.9
2009-11-06 07:40:09 51°14.256 2°55.251 317.4 9.3 316 9.7
2009-11-06 07:40:14 51°14.265 2°55.236 316.9 9.3 316 9.6
2009-11-06 07:40:19 51°14.275 2°55.222 316.9 9.5 315 9.6
2009-11-06 07:40:24 51°14.284 2°55.206 315.9 9.6 314 9.5
2009-11-06 07:40:29 51°14.293 2°55.19 314.3 9.8 312 9.5
2009-11-06 07:40:34 51°14.302 2°55.174 312.8 9.9 311 9.6
2009-11-06 07:40:38 51°14.31 2°55.161 312.4 9.9 312 9.8
2009-11-06 07:40:44 51°14.321 2°55.141 312 10.2 311 9.8
2009-11-06 07:40:49 51°14.33 2°55.123 311.1 10.3 310 9.8
2009-11-06 07:40:54 51°14.339 2°55.106 310.5 10.4 310 9.8
2009-11-06 07:40:59 51°14.348 2°55.088 310.2 10.4 310 9.6
2009-11-06 07:41:04 51°14.357 2°55.07 309.9 10.5 310 9.7
2009-11-06 07:41:09 51°14.367 2°55.052 310 10.5 310 9.5
2009-11-06 07:41:14 51°14.376 2°55.034 310.3 10.5 310 9.3
2009-11-06 07:41:19 51°14.385 2°55.016 310.2 10.6 309 9
2009-11-06 07:41:24 51°14.395 2°54.998 309.7 10.7 309 8.9
2009-11-06 07:41:29 51°14.404 2°54.979 309.2 10.7 309 8.9
2009-11-06 07:41:34 51°14.414 2°54.961 310.1 10.8 312 9.1
2009-11-06 07:41:39 51°14.424 2°54.944 312.8 10.9 313 9.2
2009-11-06 07:41:44 51°14.435 2°54.927 315.4 10.9 315 9.3
2009-11-06 07:41:49 51°14.446 2°54.909 316.7 11 315 9.5
2009-11-06 07:41:54 51°14.457 2°54.892 317.3 11 315 9.4
2009-11-06 07:41:59 51°14.467 2°54.875 317.5 11 315 9.3
2009-11-06 07:42:04 51°14.478 2°54.857 318.3 11.1 316 9.1
2009-11-06 07:42:09 51°14.49 2°54.841 319.8 11.2 318 9.2
2009-11-06 07:42:14 51°14.501 2°54.825 322.3 11.1 320 9.2
2009-11-06 07:42:19 51°14.514 2°54.81 325 11.1 322 9.3
2009-11-06 07:42:24 51°14.526 2°54.795 327.4 11.2 324 9
2009-11-06 07:42:29 51°14.539 2°54.781 329.7 11.1 325 8.9
2009-11-06 07:42:34 51°14.552 2°54.767 331.1 11.1 325 9.1
2009-11-06 07:42:39 51°14.564 2°54.753 331.3 11.1 325 9.1
2009-11-06 07:42:44 51°14.577 2°54.74 331.9 11.1 328 9
2009-11-06 07:42:49 51°14.591 2°54.728 334.7 11 332 8.8
2009-11-06 07:42:54 51°14.604 2°54.718 338.2 10.9 333 8.8
2009-11-06 07:42:58 51°14.615 2°54.709 340.4 10.9 334 8.8
2009-11-06 07:43:04 51°14.631 2°54.696 340.7 11 333 8.8
2009-11-06 07:43:09 51°14.645 2°54.685 339.7 11 333 8.7
2009-11-06 07:43:14 51°14.658 2°54.674 339.5 11 333 8.7
2009-11-06 07:43:19 51°14.672 2°54.663 339.1 11 332 8.8
2009-11-06 07:43:24 51°14.685 2°54.652 339.2 11 334 8.8
2009-11-06 07:43:29 51°14.699 2°54.641 339.6 11 333 8.8
2009-11-06 07:43:34 51°14.713 2°54.63 339.6 11 333 9
2009-11-06 07:43:38 51°14.724 2°54.622 339.7 11 334 8.7
2009-11-06 07:43:44 51°14.74 2°54.609 340.2 10.9 334 8.6
2009-11-06 07:43:49 51°14.754 2°54.599 340.4 11 334 8.9
2009-11-06 07:43:54 51°14.768 2°54.588 340.4 11 335 8.6
2009-11-06 07:43:59 51°14.781 2°54.578 341 10.9 335 8.6
2009-11-06 07:44:04 51°14.795 2°54.569 341.2 10.9 336 8.8
2009-11-06 07:44:09 51°14.809 2°54.558 341.4 11 335 8.6
2009-11-06 07:44:14 51°14.823 2°54.548 340.8 10.9 335 8.6
2009-11-06 07:44:18 51°14.834 2°54.54 340.5 10.9 335 8.6
2009-11-06 07:44:24 51°14.85 2°54.527 340.6 11 335 8.6
2009-11-06 07:44:29 51°14.864 2°54.517 341 11 336 8.5
2009-11-06 07:44:34 51°14.878 2°54.507 341.4 11 336 8.6
2009-11-06 07:44:39 51°14.892 2°54.497 341.2 11 335 8.3
2009-11-06 07:44:44 51°14.905 2°54.487 340.5 10.9 335 8.3
2009-11-06 07:44:49 51°14.919 2°54.477 340.5 10.9 335 8.3
2009-11-06 07:44:54 51°14.933 2°54.467 340.7 10.9 336 8.3
2009-11-06 07:44:58 51°14.944 2°54.459 340.8 10.9 336 8.4
2009-11-06 07:45:04 51°14.96 2°54.446 340.7 10.9 335 8.9
2009-11-06 07:45:09 51°14.974 2°54.436 340.4 10.9 335 9
2009-11-06 07:45:14 51°14.988 2°54.427 340.9 11 336 9.2
2009-11-06 07:45:18 51°14.999 2°54.418 340.9 11 335 9.1
2009-11-06 07:45:24 51°15.015 2°54.406 340.1 11 335 9.2
2009-11-06 07:45:29 51°15.029 2°54.395 339.6 11 335 9.2
2009-11-06 07:45:34 51°15.043 2°54.385 339.8 11 335 9.1
2009-11-06 07:45:38 51°15.054 2°54.377 340.1 11 336 9.2
2009-11-06 07:45:44 51°15.071 2°54.365 340.5 11 335 9.1
2009-11-06 07:45:49 51°15.085 2°54.355 340.5 11 335 9
2009-11-06 07:45:54 51°15.099 2°54.345 340.1 11 335 9.5
2009-11-06 07:45:59 51°15.112 2°54.335 340.2 11 336 9.5
2009-11-06 07:46:04 51°15.126 2°54.325 340.7 10.9 336 9.4
2009-11-06 07:46:09 51°15.14 2°54.315 340.3 11 335 9.4
2009-11-06 07:46:14 51°15.154 2°54.305 340.6 11 336 9.3
2009-11-06 07:46:19 51°15.168 2°54.295 340.7 11 335 9.4
2009-11-06 07:46:24 51°15.182 2°54.284 340.1 11 334 9.8
2009-11-06 07:46:29 51°15.195 2°54.274 339.6 11 334 9.6
2009-11-06 07:46:34 51°15.209 2°54.263 339.2 11 335 9.4
2009-11-06 07:46:39 51°15.223 2°54.253 339.7 11 335 9.5
2009-11-06 07:46:44 51°15.237 2°54.243 340.1 11 336 9.3
2009-11-06 07:46:49 51°15.251 2°54.233 340.5 11 335 9.1
2009-11-06 07:46:54 51°15.264 2°54.223 339.9 11 335 8.9
2009-11-06 07:46:58 51°15.276 2°54.215 339.8 10.9 335 8.8
2009-11-06 07:47:04 51°15.292 2°54.202 340 10.9 335 8.7
2009-11-06 07:47:09 51°15.306 2°54.192 340.5 10.9 335 8.5
2009-11-06 07:47:14 51°15.319 2°54.182 340.3 11 334 8.4
2009-11-06 07:47:18 51°15.331 2°54.173 340.2 10.9 335 8.2
2009-11-06 07:47:24 51°15.347 2°54.161 340.5 11 335 8.4
2009-11-06 07:47:29 51°15.361 2°54.151 340.3 11 335 8.6
2009-11-06 07:47:34 51°15.375 2°54.141 340.5 11 335 8.4
2009-11-06 07:47:38 51°15.386 2°54.133 341 11 336 8.5
2009-11-06 07:47:44 51°15.402 2°54.121 341.1 11 336 8.4
2009-11-06 07:47:49 51°15.416 2°54.111 341.2 11 336 8.8
2009-11-06 07:47:54 51°15.43 2°54.101 341.2 11 336 8.9
2009-11-06 07:47:59 51°15.444 2°54.091 341.3 11 336 8.5
2009-11-06 07:48:04 51°15.458 2°54.081 341.5 11 336 8.7
2009-11-06 07:48:09 51°15.472 2°54.071 341.5 11 335 8.8
2009-11-06 07:48:14 51°15.486 2°54.061 341.2 11 336 9
2009-11-06 07:48:18 51°15.497 2°54.053 340.8 11.1 335 9
2009-11-06 07:48:24 51°15.514 2°54.041 340.7 11 335 9
2009-11-06 07:48:29 51°15.528 2°54.03 340.5 11 334 9.2
2009-11-06 07:48:34 51°15.542 2°54.019 340.2 11 334 9.2
2009-11-06 07:48:39 51°15.555 2°54.009 340.5 11.1 334 9.1
2009-11-06 07:48:44 51°15.569 2°53.999 340.5 11 336 9.2
2009-11-06 07:48:49 51°15.583 2°53.988 340.8 11.1 335 9
2009-11-06 07:48:54 51°15.597 2°53.978 340.7 11.1 335 9.1
2009-11-06 07:48:59 51°15.611 2°53.967 340.5 11 334 9.6
2009-11-06 07:49:04 51°15.625 2°53.957 340.7 11 335 9.5
2009-11-06 07:49:09 51°15.639 2°53.946 340.5 11.1 334 9.5
2009-11-06 07:49:14 51°15.653 2°53.936 340.4 11 335 9.4
2009-11-06 07:49:19 51°15.666 2°53.926 340.6 11 335 9.6
2009-11-06 07:49:24 51°15.68 2°53.916 340.7 11 335 9.6
2009-11-06 07:49:29 51°15.694 2°53.905 340.6 11.1 334 9.6
2009-11-06 07:49:34 51°15.708 2°53.895 340.5 11.1 335 9.7
2009-11-06 07:49:38 51°15.719 2°53.886 340.5 11.1 335 9.8
2009-11-06 07:49:44 51°15.736 2°53.873 340.5 11.1 334 10
2009-11-06 07:49:49 51°15.75 2°53.863 340.2 11.1 334 10
2009-11-06 07:49:54 51°15.764 2°53.852 340.5 11 335 10
2009-11-06 07:49:58 51°15.775 2°53.844 340.5 11.1 335 10.1
2009-11-06 07:50:04 51°15.791 2°53.831 340.6 11.1 334 10.1
2009-11-06 07:50:09 51°15.805 2°53.82 340.2 11.1 334 9.8
2009-11-06 07:50:14 51°15.819 2°53.809 340.2 11.1 334 10.1
2009-11-06 07:50:18 51°15.83 2°53.801 340.5 11.1 334 10.2
2009-11-06 07:50:24 51°15.847 2°53.788 340.7 11.1 334 10.2
2009-11-06 07:50:29 51°15.861 2°53.777 340.6 11.2 335 10.3
2009-11-06 07:50:34 51°15.875 2°53.766 340.3 11.2 334 10.4
2009-11-06 07:50:39 51°15.889 2°53.756 340.7 11.1 335 10.3
2009-11-06 07:50:44 51°15.902 2°53.745 341.2 11.1 334 10.4
2009-11-06 07:50:49 51°15.916 2°53.732 338.8 11.2 329 10.4
2009-11-06 07:50:54 51°15.929 2°53.72 336.7 11.1 330 9.9
2009-11-06 07:50:59 51°15.942 2°53.707 335.7 11.2 327 10.1
2009-11-06 07:51:04 51°15.955 2°53.693 333.6 11.2 327 10.3
2009-11-06 07:51:09 51°15.968 2°53.679 332.9 11.3 326 10.5
2009-11-06 07:51:14 51°15.981 2°53.665 331.7 11.3 325 10.4
2009-11-06 07:51:19 51°15.993 2°53.651 330.9 11.3 325 10.3
2009-11-06 07:51:24 51°16.006 2°53.636 330.1 11.3 323 10.3
2009-11-06 07:51:29 51°16.019 2°53.621 329.6 11.3 324 10.3
2009-11-06 07:51:34 51°16.031 2°53.606 328.9 11.3 323 10.2
2009-11-06 07:51:38 51°16.041 2°53.594 328.7 11.3 323 10.4
2009-11-06 07:51:44 51°16.056 2°53.576 328.5 11.4 323 10.4
2009-11-06 07:51:49 51°16.069 2°53.56 328.1 11.4 323 10.6
2009-11-06 07:51:54 51°16.082 2°53.545 328.3 11.4 323 10.4
2009-11-06 07:51:58 51°16.092 2°53.533 328.4 11.4 323 10.5
2009-11-06 07:52:04 51°16.107 2°53.516 329.1 11.3 324 10.5
2009-11-06 07:52:09 51°16.119 2°53.501 329.8 11.3 325 10.6
2009-11-06 07:52:14 51°16.132 2°53.487 330.5 11.3 325 10.7
2009-11-06 07:52:18 51°16.143 2°53.475 330.8 11.3 324 10.6
2009-11-06 07:52:24 51°16.158 2°53.458 330.5 11.3 325 10.7
2009-11-06 07:52:29 51°16.171 2°53.443 330.4 11.3 325 10.6
2009-11-06 07:52:34 51°16.184 2°53.429 330.8 11.3 326 10.6
2009-11-06 07:52:38 51°16.194 2°53.418 331.2 11.3 325 10.6
2009-11-06 07:52:44 51°16.21 2°53.401 331.6 11.3 326 10.6
2009-11-06 07:52:49 51°16.223 2°53.387 331.5 11.4 326 10.7
2009-11-06 07:52:54 51°16.236 2°53.373 331.3 11.4 326 10.7
2009-11-06 07:52:59 51°16.249 2°53.359 331.7 11.4 326 10.7
2009-11-06 07:53:04 51°16.262 2°53.345 331.8 11.4 326 10.7
2009-11-06 07:53:09 51°16.275 2°53.331 331.9 11.4 326 10.7
2009-11-06 07:53:14 51°16.289 2°53.317 331.9 11.3 326 10.9
2009-11-06 07:53:18 51°16.299 2°53.306 331.9 11.4 326 10.5
2009-11-06 07:53:24 51°16.315 2°53.289 331.9 11.3 326 10.7
2009-11-06 07:53:29 51°16.328 2°53.275 331.8 11.4 326 10.8
2009-11-06 07:53:34 51°16.341 2°53.261 331.4 11.3 326 10.8
2009-11-06 07:53:39 51°16.354 2°53.247 331.6 11.3 327 10.6
2009-11-06 07:53:44 51°16.367 2°53.233 331.7 11.3 326 10.6
2009-11-06 07:53:49 51°16.38 2°53.219 331.7 11.3 326 10.6
2009-11-06 07:53:54 51°16.393 2°53.206 331.7 11.3 326 10.7
2009-11-06 07:53:58 51°16.403 2°53.195 331.9 11.3 327 10.9
2009-11-06 07:54:04 51°16.419 2°53.178 331.8 11.3 326 10.5
2009-11-06 07:54:09 51°16.431 2°53.164 330.9 11.2 326 10.6
2009-11-06 07:54:14 51°16.445 2°53.15 331.5 11.1 327 10.9
2009-11-06 07:54:18 51°16.455 2°53.139 331.9 11.2 327 10.9
2009-11-06 07:54:24 51°16.47 2°53.123 332.4 11.3 327 10.9
2009-11-06 07:54:29 51°16.483 2°53.11 332.4 11.2 326 10.8
2009-11-06 07:54:34 51°16.497 2°53.096 332.4 11.2 327 10.7
2009-11-06 07:54:38 51°16.507 2°53.085 332.4 11.3 327 10.4
2009-11-06 07:54:44 51°16.523 2°53.069 332.5 11.2 328 10.6
2009-11-06 07:54:49 51°16.536 2°53.056 332.6 11.2 327 10.6
2009-11-06 07:54:54 51°16.549 2°53.042 332.5 11.2 327 10.6
2009-11-06 07:54:58 51°16.559 2°53.031 332 11.2 327 10.5
2009-11-06 07:55:04 51°16.575 2°53.015 332.3 11.2 327 10.4
2009-11-06 07:55:09 51°16.588 2°53.001 332.4 11.2 327 10.4
2009-11-06 07:55:14 51°16.601 2°52.988 332.5 11.2 327 10.4
2009-11-06 07:55:18 51°16.611 2°52.977 332.5 11.3 327 10.4
2009-11-06 07:55:24 51°16.627 2°52.961 332.5 11.3 328 10.2
2009-11-06 07:55:29 51°16.64 2°52.948 332.3 11.2 327 10.2
2009-11-06 07:55:34 51°16.653 2°52.934 332.4 11.2 327 10.1
2009-11-06 07:55:39 51°16.666 2°52.921 332.6 11.2 327 10.2
2009-11-06 07:55:44 51°16.68 2°52.907 332.4 11.2 327 10.1
2009-11-06 07:55:49 51°16.693 2°52.894 332.1 11.2 327 9.6
2009-11-06 07:55:54 51°16.706 2°52.881 332.5 11.2 328 9.7
2009-11-06 07:55:59 51°16.719 2°52.868 332.7 11.2 328 9.7
2009-11-06 07:56:04 51°16.732 2°52.855 332.6 11.1 328 9.5
2009-11-06 07:56:09 51°16.745 2°52.842 332.5 11.1 328 9.4
2009-11-06 07:56:14 51°16.758 2°52.828 332.5 11.1 328 9.2
2009-11-06 07:56:18 51°16.769 2°52.818 332 11.1 328 8.6
2009-11-06 07:56:24 51°16.785 2°52.803 333 11 330 8.4
2009-11-06 07:56:29 51°16.798 2°52.792 335.1 10.9 332 8.6
2009-11-06 07:56:34 51°16.811 2°52.781 335.7 10.9 331 8.5
2009-11-06 07:56:38 51°16.822 2°52.772 336.1 10.9 333 8.5
2009-11-06 07:56:44 51°16.838 2°52.759 336.6 10.9 334 8.2
2009-11-06 07:56:49 51°16.852 2°52.748 337.1 10.9 334 8.2
2009-11-06 07:56:54 51°16.865 2°52.738 337.3 10.8 335 8.5
2009-11-06 07:56:58 51°16.876 2°52.73 337.8 10.8 335 8.2
2009-11-06 07:57:04 51°16.893 2°52.72 341.1 10.7 340 8.2
2009-11-06 07:57:09 51°16.907 2°52.711 342.2 10.8 338 8.5
2009-11-06 07:57:14 51°16.921 2°52.704 343.5 10.7 342 8.6
2009-11-06 07:57:18 51°16.932 2°52.697 344.7 10.7 341 8.3
2009-11-06 07:57:24 51°16.949 2°52.689 345.8 10.7 343 8.7
2009-11-06 07:57:29 51°16.963 2°52.682 346.8 10.7 343 8.6
2009-11-06 07:57:34 51°16.977 2°52.676 347.7 10.7 345 8.7
2009-11-06 07:57:38 51°16.989 2°52.671 347.7 10.7 345 8.9
2009-11-06 07:57:44 51°17.006 2°52.666 350.7 10.5 350 8.9
2009-11-06 07:57:49 51°17.021 2°52.661 353.2 10.7 348 8.8
2009-11-06 07:57:54 51°17.036 2°52.658 353.9 10.6 351 8.7
2009-11-06 07:57:59 51°17.05 2°52.655 355.7 10.5 351 8.6
2009-11-06 07:58:04 51°17.065 2°52.653 356.5 10.5 355 8.9
2009-11-06 07:58:09 51°17.079 2°52.65 357.9 10.6 354 8.5
2009-11-06 07:58:14 51°17.094 2°52.648 358.3 10.6 354 8.2
2009-11-06 07:58:19 51°17.108 2°52.647 359.4 10.5 356 8.4
2009-11-06 07:58:24 51°17.123 2°52.645 -999 10.5 355 8.3
2009-11-06 07:58:29 51°17.137 2°52.644 0.6 10.5 357 8.5
2009-11-06 07:58:34 51°17.152 2°52.642 0.7 10.5 356 8.5
2009-11-06 07:58:38 51°17.164 2°52.642 0.7 10.5 358 8.6
2009-11-06 07:58:44 51°17.181 2°52.64 0.8 10.6 357 8.6
2009-11-06 07:58:49 51°17.196 2°52.639 0.8 10.6 357 8.6
2009-11-06 07:58:54 51°17.21 2°52.638 1.2 10.5 358 8.7
2009-11-06 07:58:58 51°17.222 2°52.638 1.8 10.6 358 8.8
2009-11-06 07:59:04 51°17.239 2°52.636 1.9 10.6 357 8.7
2009-11-06 07:59:09 51°17.254 2°52.635 1.9 10.6 358 8.6
2009-11-06 07:59:14 51°17.269 2°52.635 2.4 10.6 358 8.7
2009-11-06 07:59:19 51°17.283 2°52.634 2.2 10.6 358 8.5
2009-11-06 07:59:24 51°17.298 2°52.633 1.7 10.6 357 8.7
2009-11-06 07:59:29 51°17.313 2°52.632 1.4 10.6 357 8.5
2009-11-06 07:59:34 51°17.327 2°52.63 1.1 10.6 357 8.7
2009-11-06 07:59:38 51°17.339 2°52.629 1.5 10.6 358 9
2009-11-06 07:59:44 51°17.357 2°52.628 2 10.6 358 8.9
2009-11-06 07:59:49 51°17.372 2°52.627 1.9 10.7 357 9
2009-11-06 07:59:54 51°17.387 2°52.626 1.4 10.7 357 8.7
2009-11-06 07:59:59 51°17.402 2°52.625 1.4 10.6 357 8.7
2009-11-06 08:00:04 51°17.416 2°52.624 1.9 10.6 358 8.8
2009-11-06 08:00:09 51°17.431 2°52.623 2.1 10.6 358 8.9
2009-11-06 08:00:14 51°17.446 2°52.622 1.6 10.6 357 9.1
2009-11-06 08:00:19 51°17.46 2°52.621 1.5 10.6 357 9
2009-11-06 08:00:24 51°17.475 2°52.62 1.3 10.6 358 9
2009-11-06 08:00:29 51°17.49 2°52.618 1.5 10.6 356 9.1
2009-11-06 08:00:34 51°17.504 2°52.617 1.6 10.6 358 9
2009-11-06 08:00:38 51°17.516 2°52.616 1.4 10.6 356 9
2009-11-06 08:00:44 51°17.534 2°52.615 1 10.6 357 9
2009-11-06 08:00:49 51°17.548 2°52.614 1.2 10.6 357 9.2
2009-11-06 08:00:54 51°17.563 2°52.613 1.4 10.5 358 9.5
2009-11-06 08:00:58 51°17.575 2°52.611 0.8 10.6 356 9.1
2009-11-06 08:01:04 51°17.592 2°52.61 0.9 10.6 356 9.3
2009-11-06 08:01:09 51°17.607 2°52.608 0.8 10.6 356 9.2
2009-11-06 08:01:14 51°17.622 2°52.607 0.5 10.6 356 9.1
2009-11-06 08:01:18 51°17.634 2°52.605 0.7 10.6 356 9.2
2009-11-06 08:01:24 51°17.651 2°52.604 0.5 10.6 356 9.2
2009-11-06 08:01:29 51°17.666 2°52.602 0.6 10.6 356 9.2
2009-11-06 08:01:34 51°17.68 2°52.601 0.8 10.6 356 9.1
2009-11-06 08:01:38 51°17.692 2°52.6 0.8 10.6 356 8.9
2009-11-06 08:01:44 51°17.71 2°52.597 0.5 10.6 355 9
2009-11-06 08:01:49 51°17.724 2°52.596 0.1 10.6 357 9.3
2009-11-06 08:01:54 51°17.739 2°52.593 0.1 10.6 355 9.1
2009-11-06 08:01:58 51°17.751 2°52.591 359.1 10.6 354 8.9
2009-11-06 08:02:04 51°17.768 2°52.589 359.3 10.6 356 9
2009-11-06 08:02:09 51°17.783 2°52.587 359.2 10.6 355 9.1
2009-11-06 08:02:14 51°17.798 2°52.585 359.9 10.5 355 8.9
2009-11-06 08:02:19 51°17.812 2°52.584 359.9 10.5 357 9.1
2009-11-06 08:02:24 51°17.827 2°52.582 0.2 10.6 355 9.3
2009-11-06 08:02:29 51°17.841 2°52.58 -999 10.6 356 9.4
2009-11-06 08:02:34 51°17.856 2°52.578 0.3 10.6 356 9.2
2009-11-06 08:02:39 51°17.871 2°52.577 0.1 10.6 357 9
2009-11-06 08:02:44 51°17.886 2°52.575 0.8 10.6 356 9.1
2009-11-06 08:02:49 51°17.9 2°52.574 0.8 10.6 356 9.1
2009-11-06 08:02:54 51°17.915 2°52.572 0.1 10.6 355 9
2009-11-06 08:02:58 51°17.927 2°52.571 0.8 10.5 354 9
2009-11-06 08:03:04 51°17.944 2°52.569 0.2 10.5 356 9.5
2009-11-06 08:03:09 51°17.959 2°52.567 0.1 10.6 355 9.5
2009-11-06 08:03:14 51°17.973 2°52.564 359.5 10.5 355 9.3
2009-11-06 08:03:18 51°17.985 2°52.563 359.5 10.6 354 9.3
2009-11-06 08:03:24 51°18.002 2°52.56 358.9 10.6 355 9.6
2009-11-06 08:03:29 51°18.017 2°52.557 358.8 10.5 354 9.6
2009-11-06 08:03:34 51°18.031 2°52.555 358.8 10.5 353 9.7
2009-11-06 08:03:38 51°18.043 2°52.553 359.3 10.6 354 9.8
2009-11-06 08:03:44 51°18.061 2°52.55 359 10.6 354 9.5
2009-11-06 08:03:49 51°18.075 2°52.547 358.4 10.5 353 9.2
2009-11-06 08:03:54 51°18.09 2°52.545 358.2 10.5 354 9.6
2009-11-06 08:03:58 51°18.101 2°52.542 358 10.5 353 9.5
2009-11-06 08:04:04 51°18.119 2°52.54 358.1 10.6 354 9.7
2009-11-06 08:04:09 51°18.133 2°52.537 358.7 10.5 354 9.5
2009-11-06 08:04:14 51°18.148 2°52.535 359.1 10.6 355 9.6
2009-11-06 08:04:19 51°18.162 2°52.532 358.9 10.6 354 9.6
2009-11-06 08:04:24 51°18.177 2°52.53 359.3 10.6 357 9.5
2009-11-06 08:04:29 51°18.192 2°52.528 0.1 10.6 353 9.5
2009-11-06 08:04:34 51°18.206 2°52.526 358.9 10.5 356 9.7
2009-11-06 08:04:38 51°18.218 2°52.525 359.4 10.4 355 9.8
2009-11-06 08:04:44 51°18.235 2°52.525 2.1 10.3 1 9.8
2009-11-06 08:04:49 51°18.25 2°52.524 4.9 10.4 359 9.4
2009-11-06 08:04:54 51°18.264 2°52.527 6.1 10.3 4 9.5
2009-11-06 08:04:59 51°18.278 2°52.529 8.5 10.3 4 9.7
2009-11-06 08:05:04 51°18.293 2°52.531 8.9 10.3 4 9.8
2009-11-06 08:05:09 51°18.307 2°52.534 10.6 10.4 8 9.9
2009-11-06 08:05:14 51°18.321 2°52.537 11.7 10.3 7 9.7
2009-11-06 08:05:18 51°18.332 2°52.54 12.5 10.3 10 9.9
2009-11-06 08:05:24 51°18.349 2°52.544 13 10.3 8 9.7
2009-11-06 08:05:29 51°18.363 2°52.549 13.6 10.3 12 9.8
2009-11-06 08:05:34 51°18.377 2°52.552 14.6 10.3 9 10
2009-11-06 08:05:39 51°18.392 2°52.556 14.6 10.3 11 10
2009-11-06 08:05:44 51°18.406 2°52.561 15 10.3 11 10.2
2009-11-06 08:05:49 51°18.42 2°52.565 15.3 10.3 11 10.1
2009-11-06 08:05:54 51°18.434 2°52.569 15.1 10.4 10 9.9
2009-11-06 08:05:58 51°18.445 2°52.573 15.3 10.4 11 10
2009-11-06 08:06:04 51°18.462 2°52.578 15.3 10.4 10 10.3
2009-11-06 08:06:09 51°18.476 2°52.583 15.5 10.3 12 10.2
2009-11-06 08:06:14 51°18.49 2°52.586 15.4 10.4 10 9.9
2009-11-06 08:06:18 51°18.501 2°52.591 15.9 10.4 13 10.1
2009-11-06 08:06:24 51°18.518 2°52.596 16.3 10.4 12 10.1
2009-11-06 08:06:29 51°18.532 2°52.601 15.9 10.4 12 10.2
2009-11-06 08:06:34 51°18.546 2°52.606 16.7 10.4 13 10.2
2009-11-06 08:06:39 51°18.561 2°52.611 16.8 10.4 12 10.1
2009-11-06 08:06:44 51°18.575 2°52.616 16.8 10.5 12 10.1
2009-11-06 08:06:49 51°18.589 2°52.62 16.3 10.4 12 10
2009-11-06 08:06:54 51°18.603 2°52.625 16.5 10.5 13 10.2
2009-11-06 08:06:59 51°18.617 2°52.629 16.1 10.4 11 10.3
2009-11-06 08:07:04 51°18.631 2°52.635 16.2 10.3 14 10.4
2009-11-06 08:07:09 51°18.646 2°52.639 17.3 10.5 12 10.3
2009-11-06 08:07:14 51°18.66 2°52.644 16.5 10.4 13 10.4
2009-11-06 08:07:18 51°18.671 2°52.648 16.5 10.4 11 10.5
2009-11-06 08:07:24 51°18.688 2°52.654 16.7 10.5 13 10.7
2009-11-06 08:07:29 51°18.702 2°52.659 16.8 10.4 12 10.6
2009-11-06 08:07:34 51°18.716 2°52.664 17 10.4 12 10.5
2009-11-06 08:07:39 51°18.73 2°52.668 16.5 10.5 12 10.6
2009-11-06 08:07:44 51°18.745 2°52.673 16.3 10.5 12 10.6
2009-11-06 08:07:49 51°18.759 2°52.678 16.1 10.4 13 10.7
2009-11-06 08:07:54 51°18.773 2°52.682 16.1 10.4 9 10.8
2009-11-06 08:07:58 51°18.784 2°52.686 15.6 10.4 12 10.6
2009-11-06 08:08:04 51°18.801 2°52.691 15.3 10.4 10 10.7
2009-11-06 08:08:09 51°18.816 2°52.694 14.5 10.4 10 10.7
2009-11-06 08:08:14 51°18.83 2°52.698 14.4 10.4 10 10.6
2009-11-06 08:08:18 51°18.841 2°52.7 13.6 10.4 9 10.9
2009-11-06 08:08:24 51°18.858 2°52.705 14.1 10.4 10 10.8
2009-11-06 08:08:29 51°18.873 2°52.709 13.9 10.4 8 10.8
2009-11-06 08:08:34 51°18.887 2°52.713 14.1 10.4 11 10.8
2009-11-06 08:08:38 51°18.898 2°52.716 14.7 10.4 9 10.5
2009-11-06 08:08:44 51°18.915 2°52.722 15.2 10.5 12 10.7
2009-11-06 08:08:49 51°18.929 2°52.726 15.6 10.4 10 10.8
2009-11-06 08:08:54 51°18.943 2°52.73 15.1 10.4 10 10.9
2009-11-06 08:08:58 51°18.955 2°52.734 14.8 10.4 11 11.1
2009-11-06 08:09:04 51°18.972 2°52.737 14.4 10.5 7 11.2
2009-11-06 08:09:09 51°18.986 2°52.742 14.2 10.4 12 11.3
2009-11-06 08:09:14 51°19.001 2°52.745 14.5 10.4 10 11.3
2009-11-06 08:09:19 51°19.015 2°52.749 14.2 10.4 10 11.4
2009-11-06 08:09:24 51°19.029 2°52.753 14.7 10.4 11 11.3
2009-11-06 08:09:29 51°19.043 2°52.758 15.5 10.4 11 11.6
2009-11-06 08:09:34 51°19.057 2°52.762 15.5 10.5 10 11.5
2009-11-06 08:09:38 51°19.069 2°52.766 15.5 10.4 10 11.6
2009-11-06 08:09:44 51°19.086 2°52.771 15.3 10.4 11 11.9
2009-11-06 08:09:49 51°19.1 2°52.775 15.6 10.5 11 11.7
2009-11-06 08:09:54 51°19.114 2°52.779 15.6 10.5 10 11.8
2009-11-06 08:09:58 51°19.126 2°52.783 15 10.4 12 11.5
2009-11-06 08:10:04 51°19.143 2°52.788 15.2 10.5 10 11.9
2009-11-06 08:10:09 51°19.157 2°52.792 15.1 10.4 12 11.9
2009-11-06 08:10:14 51°19.171 2°52.796 15.4 10.4 9 12
2009-11-06 08:10:18 51°19.183 2°52.8 15.5 10.4 12 12
2009-11-06 08:10:24 51°19.2 2°52.804 15.5 10.5 10 12.2
2009-11-06 08:10:29 51°19.214 2°52.809 15 10.5 11 12.2
2009-11-06 08:10:34 51°19.228 2°52.813 15.3 10.5 10 12.3
2009-11-06 08:10:38 51°19.24 2°52.816 15.4 10.4 11 12.2
2009-11-06 08:10:44 51°19.257 2°52.821 15.6 10.5 11 12.1
2009-11-06 08:10:49 51°19.271 2°52.825 15.1 10.5 9 12.1
2009-11-06 08:10:54 51°19.285 2°52.829 14.6 10.4 11 12.2
2009-11-06 08:10:58 51°19.297 2°52.833 15.5 10.6 9 12.3
2009-11-06 08:11:04 51°19.314 2°52.838 15.1 10.6 10 12.5
2009-11-06 08:11:09 51°19.328 2°52.842 14.6 10.5 11 12.5
2009-11-06 08:11:14 51°19.343 2°52.846 14.6 10.5 9 12.6
2009-11-06 08:11:19 51°19.357 2°52.85 14.4 10.5 10 12.8
2009-11-06 08:11:24 51°19.371 2°52.854 14.5 10.5 10 12.9
2009-11-06 08:11:29 51°19.386 2°52.858 14.7 10.5 10 12.8
2009-11-06 08:11:34 51°19.4 2°52.862 15 10.5 9 12.6
2009-11-06 08:11:39 51°19.414 2°52.866 14.5 10.5 10 12.8
2009-11-06 08:11:44 51°19.429 2°52.869 14.2 10.5 9 12.9
2009-11-06 08:11:49 51°19.443 2°52.874 14.3 10.5 11 13
2009-11-06 08:11:54 51°19.457 2°52.878 14.7 10.5 10 13
2009-11-06 08:11:58 51°19.469 2°52.881 15.1 10.5 10 13.1
2009-11-06 08:12:04 51°19.486 2°52.886 14.5 10.5 9 13
2009-11-06 08:12:09 51°19.5 2°52.89 14.6 10.5 11 13.1
2009-11-06 08:12:14 51°19.515 2°52.894 15.2 10.5 10 13.1
2009-11-06 08:12:18 51°19.526 2°52.897 14.8 10.6 10 13.4
2009-11-06 08:12:24 51°19.543 2°52.902 14.4 10.5 9 13.3
2009-11-06 08:12:29 51°19.558 2°52.905 14.2 10.5 10 13.2
2009-11-06 08:12:34 51°19.572 2°52.909 14.2 10.5 9 13.4
2009-11-06 08:12:39 51°19.586 2°52.913 14.7 10.4 11 13.7
2009-11-06 08:12:44 51°19.601 2°52.917 15 10.5 10 13.6
2009-11-06 08:12:49 51°19.615 2°52.921 14.4 10.5 9 13.7
2009-11-06 08:12:54 51°19.629 2°52.925 14.5 10.4 11 13.8
2009-11-06 08:12:58 51°19.641 2°52.928 14.8 10.5 10 13.8
2009-11-06 08:13:04 51°19.658 2°52.933 14.6 10.5 10 13.8
2009-11-06 08:13:09 51°19.672 2°52.937 15 10.5 10 14.1
2009-11-06 08:13:14 51°19.687 2°52.941 15.3 10.5 10 13.9
2009-11-06 08:13:18 51°19.698 2°52.944 14.8 10.5 9 13.9
2009-11-06 08:13:24 51°19.715 2°52.949 15.2 10.5 11 13.9
2009-11-06 08:13:29 51°19.729 2°52.953 15 10.5 9 14
2009-11-06 08:13:34 51°19.744 2°52.958 14.9 10.4 11 14.1
2009-11-06 08:13:38 51°19.755 2°52.96 14.6 10.5 10 14.1
2009-11-06 08:13:44 51°19.772 2°52.966 15.1 10.4 11 14
2009-11-06 08:13:49 51°19.787 2°52.97 15.2 10.5 10 14.4
2009-11-06 08:13:54 51°19.801 2°52.973 14.9 10.5 9 14.4
2009-11-06 08:13:59 51°19.815 2°52.978 15 10.4 11 14.3
2009-11-06 08:14:04 51°19.829 2°52.981 15.3 10.5 9 14.4
2009-11-06 08:14:09 51°19.844 2°52.985 14.5 10.4 11 14.7
2009-11-06 08:14:14 51°19.858 2°52.989 14.4 10.5 10 14.7
2009-11-06 08:14:18 51°19.87 2°52.992 15 10.5 8 14.3
2009-11-06 08:14:24 51°19.887 2°52.997 14.4 10.5 9 14.4
2009-11-06 08:14:29 51°19.901 2°53 13.6 10.5 8 14.6
2009-11-06 08:14:34 51°19.915 2°53.004 13.9 10.4 10 14.7
2009-11-06 08:14:38 51°19.927 2°53.006 13.9 10.4 8 14.7
2009-11-06 08:14:44 51°19.944 2°53.011 14.5 10.5 10 14.8
2009-11-06 08:14:49 51°19.958 2°53.015 14.3 10.5 9 14.7
2009-11-06 08:14:54 51°19.973 2°53.019 14 10.5 10 14.7
2009-11-06 08:14:58 51°19.984 2°53.021 13.6 10.5 8 14.8
2009-11-06 08:15:04 51°20.001 2°53.025 13.5 10.5 9 14.8
2009-11-06 08:15:09 51°20.016 2°53.028 13.2 10.5 8 14.9
2009-11-06 08:15:14 51°20.03 2°53.032 13.5 10.4 9 15.1
2009-11-06 08:15:18 51°20.042 2°53.034 13.2 10.5 8 14.9
2009-11-06 08:15:24 51°20.059 2°53.039 14.1 10.4 9 14.7
2009-11-06 08:15:29 51°20.073 2°53.042 13.9 10.5 8 14.7
2009-11-06 08:15:34 51°20.087 2°53.046 13.2 10.4 9 14.8
2009-11-06 08:15:38 51°20.099 2°53.048 13 10.4 7 15.1
2009-11-06 08:15:44 51°20.116 2°53.052 13.2 10.4 9 14.9
2009-11-06 08:15:49 51°20.13 2°53.055 13.9 10.5 8 14.9
2009-11-06 08:15:54 51°20.145 2°53.059 13.9 10.5 10 15
2009-11-06 08:15:59 51°20.159 2°53.062 14.1 10.5 7 15.1
2009-11-06 08:16:04 51°20.173 2°53.066 13.8 10.4 8 15.1
2009-11-06 08:16:09 51°20.188 2°53.07 14.6 10.4 8 15.1
2009-11-06 08:16:14 51°20.202 2°53.073 13.7 10.4 7 14.9
2009-11-06 08:16:19 51°20.216 2°53.077 14 10.4 9 14.7
2009-11-06 08:16:24 51°20.23 2°53.08 13.7 10.5 9 15.2
2009-11-06 08:16:29 51°20.245 2°53.083 13.4 10.4 9 15.4
2009-11-06 08:16:34 51°20.259 2°53.087 13.7 10.3 9 15.1
2009-11-06 08:16:39 51°20.273 2°53.091 13.9 10.3 10 14.9
2009-11-06 08:16:44 51°20.287 2°53.094 14.6 10.4 7 14.9
2009-11-06 08:16:49 51°20.302 2°53.097 14.3 10.4 9 15
2009-11-06 08:16:54 51°20.316 2°53.101 14.2 10.4 10 15.1
2009-11-06 08:16:58 51°20.327 2°53.105 14.3 10.4 9 15
2009-11-06 08:17:04 51°20.344 2°53.109 14.3 10.4 9 15
2009-11-06 08:17:09 51°20.358 2°53.112 14.1 10.3 9 15.1
2009-11-06 08:17:14 51°20.373 2°53.115 13.8 10.4 9 15
2009-11-06 08:17:18 51°20.384 2°53.118 13 10.4 8 15.1
2009-11-06 08:17:24 51°20.401 2°53.121 13 10.4 8 15.2
2009-11-06 08:17:29 51°20.415 2°53.125 13.7 10.3 9 14.9
2009-11-06 08:17:34 51°20.43 2°53.129 14.3 10.4 8 15.2
2009-11-06 08:17:39 51°20.444 2°53.133 14.7 10.3 9 15.3
2009-11-06 08:17:44 51°20.458 2°53.136 14.3 10.3 8 15.3
2009-11-06 08:17:49 51°20.472 2°53.14 14.8 10.4 9 15.2
2009-11-06 08:17:54 51°20.486 2°53.143 14.9 10.3 9 15.1
2009-11-06 08:17:58 51°20.498 2°53.146 14.3 10.3 9 15.3
2009-11-06 08:18:04 51°20.515 2°53.151 13.9 10.3 10 15.4
2009-11-06 08:18:09 51°20.529 2°53.154 14.2 10.4 8 15.1
2009-11-06 08:18:14 51°20.543 2°53.157 14.2 10.4 8 15.4
2009-11-06 08:18:19 51°20.557 2°53.161 14.2 10.4 9 15.2
2009-11-06 08:18:24 51°20.572 2°53.164 13.8 10.4 8 15
2009-11-06 08:18:29 51°20.586 2°53.168 13.4 10.4 8 14.9
2009-11-06 08:18:34 51°20.6 2°53.171 14 10.4 8 14.9
2009-11-06 08:18:38 51°20.611 2°53.174 14.1 10.3 9 15.2
2009-11-06 08:18:44 51°20.628 2°53.178 13.9 10.4 7 15.2
2009-11-06 08:18:49 51°20.643 2°53.181 13.5 10.4 8 15.1
2009-11-06 08:18:54 51°20.657 2°53.185 13.5 10.3 9 15.1
2009-11-06 08:18:58 51°20.668 2°53.188 13.9 10.2 11 15.4
2009-11-06 08:19:04 51°20.685 2°53.192 14.7 10.3 8 15.5
2009-11-06 08:19:09 51°20.699 2°53.196 14.7 10.2 12 15.1
2009-11-06 08:19:14 51°20.713 2°53.2 15.4 10.3 9 15.1
2009-11-06 08:19:18 51°20.724 2°53.204 15.9 10.2 11 15.1
2009-11-06 08:19:24 51°20.741 2°53.208 14.9 10.2 9 15.3
2009-11-06 08:19:29 51°20.755 2°53.212 14.9 10.3 10 15.3
2009-11-06 08:19:34 51°20.769 2°53.215 15 10.3 9 15.2
2009-11-06 08:19:38 51°20.78 2°53.219 15.6 10.3 12 15.2
2009-11-06 08:19:44 51°20.797 2°53.223 15.5 10.4 9 15.3
2009-11-06 08:19:49 51°20.811 2°53.228 14.9 10.3 11 14.9
2009-11-06 08:19:54 51°20.825 2°53.231 15.9 10.3 10 14.9
2009-11-06 08:19:58 51°20.837 2°53.234 14.1 10.4 9 15.2
2009-11-06 08:20:04 51°20.854 2°53.238 14.6 10.3 10 15.1
2009-11-06 08:20:09 51°20.868 2°53.242 14.4 10.4 9 14.9
2009-11-06 08:20:14 51°20.882 2°53.246 14.3 10.4 10 15.1
2009-11-06 08:20:19 51°20.896 2°53.249 14.1 10.4 8 15
2009-11-06 08:20:24 51°20.91 2°53.252 14 10.4 8 15
2009-11-06 08:20:29 51°20.925 2°53.256 13.8 10.5 8 15.2
2009-11-06 08:20:34 51°20.939 2°53.259 13.1 10.4 8 15.6
2009-11-06 08:20:38 51°20.951 2°53.261 13 10.4 7 15.3
2009-11-06 08:20:44 51°20.968 2°53.264 12.9 10.4 7 15.2
2009-11-06 08:20:49 51°20.982 2°53.267 12.7 10.4 7 15
2009-11-06 08:20:54 51°20.997 2°53.27 12.6 10.4 8 15.1
2009-11-06 08:20:58 51°21.008 2°53.272 13.3 10.4 8 15.1
2009-11-06 08:21:04 51°21.025 2°53.277 14.5 10.4 10 15.2
2009-11-06 08:21:09 51°21.039 2°53.281 13.9 10.4 9 15.1
2009-11-06 08:21:14 51°21.054 2°53.285 14.3 10.4 10 14.8
2009-11-06 08:21:18 51°21.065 2°53.287 15 10.4 8 14.7
2009-11-06 08:21:24 51°21.082 2°53.292 14.3 10.3 10 14.8
2009-11-06 08:21:29 51°21.096 2°53.295 14.7 10.3 8 14.5
2009-11-06 08:21:34 51°21.11 2°53.299 13.9 10.3 9 14.9
2009-11-06 08:21:38 51°21.121 2°53.302 14.3 10.2 9 15
2009-11-06 08:21:44 51°21.138 2°53.306 13.9 10.3 8 15.1
2009-11-06 08:21:49 51°21.152 2°53.309 14.6 10.4 8 15.1
2009-11-06 08:21:54 51°21.167 2°53.313 14.5 10.3 10 14.7
2009-11-06 08:21:58 51°21.178 2°53.315 14.4 10.3 9 14.7
2009-11-06 08:22:04 51°21.195 2°53.319 14.2 10.3 9 14.4
2009-11-06 08:22:09 51°21.209 2°53.323 14.2 10.3 8 14.4
2009-11-06 08:22:14 51°21.223 2°53.326 14.2 10.4 8 14.3
2009-11-06 08:22:19 51°21.237 2°53.329 14 10.4 9 14.2
2009-11-06 08:22:24 51°21.251 2°53.332 13.7 10.3 8 14.3
2009-11-06 08:22:29 51°21.266 2°53.336 13.8 10.3 9 14.3
2009-11-06 08:22:34 51°21.28 2°53.339 14.6 10.4 9 14.3
2009-11-06 08:22:39 51°21.294 2°53.342 14.3 10.3 8 14.4
2009-11-06 08:22:44 51°21.308 2°53.346 14.2 10.4 9 14.7
2009-11-06 08:22:49 51°21.323 2°53.349 14.6 10.4 8 14.5
2009-11-06 08:22:54 51°21.337 2°53.354 14.9 10.4 10 14.7
2009-11-06 08:22:59 51°21.351 2°53.356 14.5 10.4 7 14.6
2009-11-06 08:23:04 51°21.365 2°53.36 14.2 10.4 9 14.5
2009-11-06 08:23:09 51°21.379 2°53.364 14.4 10.4 8 14.7
2009-11-06 08:23:14 51°21.393 2°53.367 14.1 10.3 9 14.5
2009-11-06 08:23:18 51°21.405 2°53.37 14.4 10.3 9 14.5
2009-11-06 08:23:24 51°21.422 2°53.374 15 10.3 9 14.7
2009-11-06 08:23:29 51°21.436 2°53.378 14.6 10.3 10 14.3
2009-11-06 08:23:34 51°21.45 2°53.382 15.3 10.4 10 14.4
2009-11-06 08:23:39 51°21.464 2°53.385 15.3 10.3 8 14.7
2009-11-06 08:23:44 51°21.478 2°53.39 14.7 10.3 9 15
2009-11-06 08:23:49 51°21.492 2°53.393 14.8 10.3 10 15
2009-11-06 08:23:54 51°21.506 2°53.397 15.6 10.2 10 14.9
2009-11-06 08:23:58 51°21.517 2°53.4 15.6 10.3 9 15.2
2009-11-06 08:24:04 51°21.534 2°53.406 15.6 10.3 11 15.1
2009-11-06 08:24:09 51°21.548 2°53.408 15.3 10.4 6 15
2009-11-06 08:24:14 51°21.562 2°53.413 14.7 10.3 11 15.2
2009-11-06 08:24:18 51°21.573 2°53.416 14.8 10.2 10 15.6
2009-11-06 08:24:24 51°21.591 2°53.42 15 10.3 8 15.6
2009-11-06 08:24:29 51°21.605 2°53.424 15.2 10.3 10 15.1
2009-11-06 08:24:34 51°21.619 2°53.428 15.3 10.3 10 15.5
2009-11-06 08:24:38 51°21.63 2°53.43 15.2 10.3 9 15.7
2009-11-06 08:24:44 51°21.647 2°53.435 14.6 10.3 9 15.8
2009-11-06 08:24:49 51°21.661 2°53.438 14.6 10.4 8 15.3
2009-11-06 08:24:54 51°21.676 2°53.441 14.6 10.4 8 15.5
2009-11-06 08:24:59 51°21.69 2°53.445 13.9 10.3 10 15.9
2009-11-06 08:25:04 51°21.704 2°53.448 14.3 10.3 8 15.9
2009-11-06 08:25:09 51°21.718 2°53.451 13.7 10.3 9 15.9
2009-11-06 08:25:14 51°21.732 2°53.455 14.1 10.4 9 16.2
2009-11-06 08:25:19 51°21.747 2°53.458 14.3 10.3 9 16.3
2009-11-06 08:25:24 51°21.761 2°53.462 14.3 10.4 8 16.6
2009-11-06 08:25:29 51°21.775 2°53.465 14.5 10.4 9 16.6
2009-11-06 08:25:34 51°21.789 2°53.469 14.4 10.4 9 16.4
2009-11-06 08:25:38 51°21.801 2°53.472 15.1 10.3 9 16.8
2009-11-06 08:25:44 51°21.818 2°53.476 14.6 10.3 9 17
2009-11-06 08:25:49 51°21.832 2°53.478 14.2 10.4 7 17.2
2009-11-06 08:25:54 51°21.846 2°53.483 14.5 10.4 10 17.4
2009-11-06 08:25:58 51°21.858 2°53.485 14.7 10.4 6 17.3
2009-11-06 08:26:04 51°21.875 2°53.49 13.9 10.3 10 17.5
2009-11-06 08:26:09 51°21.889 2°53.492 13.9 10.5 6 17.5
2009-11-06 08:26:14 51°21.903 2°53.496 13.7 10.4 9 17.6
2009-11-06 08:26:18 51°21.915 2°53.498 13.7 10.4 7 17.8
2009-11-06 08:26:24 51°21.932 2°53.502 13.7 10.4 8 17.8
2009-11-06 08:26:29 51°21.946 2°53.505 13.6 10.4 9 17.9
2009-11-06 08:26:34 51°21.96 2°53.508 14.1 10.4 9 18
2009-11-06 08:26:38 51°21.972 2°53.511 14.1 10.4 10 18.3
2009-11-06 08:26:44 51°21.989 2°53.515 14 10.4 7 18.1
2009-11-06 08:26:49 51°22.003 2°53.519 13.9 10.3 9 18.1
2009-11-06 08:26:54 51°22.017 2°53.522 13.4 10.3 8 18.1
2009-11-06 08:26:58 51°22.029 2°53.525 13.6 10.3 9 18.3
2009-11-06 08:27:04 51°22.046 2°53.528 13.5 10.3 6 18.6
2009-11-06 08:27:09 51°22.06 2°53.532 14.2 10.2 10 18.4
2009-11-06 08:27:14 51°22.074 2°53.535 14.5 10.3 8 18.6
2009-11-06 08:27:19 51°22.088 2°53.538 14.4 10.3 10 18.9
2009-11-06 08:27:24 51°22.102 2°53.542 15.3 10.3 7 18.7
2009-11-06 08:27:29 51°22.116 2°53.545 13.9 10.4 9 19.1
2009-11-06 08:27:34 51°22.131 2°53.549 14.5 10.3 10 19.3
2009-11-06 08:27:38 51°22.142 2°53.551 14.6 10.4 8 19.3
2009-11-06 08:27:44 51°22.159 2°53.556 14.7 10.4 10 19.5
2009-11-06 08:27:49 51°22.173 2°53.559 14.6 10.4 7 19.8
2009-11-06 08:27:54 51°22.188 2°53.563 14.7 10.4 10 19.7
2009-11-06 08:27:58 51°22.199 2°53.566 14.7 10.4 8 19.6
2009-11-06 08:28:04 51°22.216 2°53.57 14.2 10.4 7 20
2009-11-06 08:28:09 51°22.23 2°53.574 14.1 10.4 9 20.2
2009-11-06 08:28:14 51°22.245 2°53.576 13 10.4 6 20.3
2009-11-06 08:28:18 51°22.256 2°53.58 14 10.2 10 20.4
2009-11-06 08:28:24 51°22.273 2°53.583 14.4 10.3 6 20.7
2009-11-06 08:28:29 51°22.287 2°53.587 14 10.3 10 20.3
2009-11-06 08:28:34 51°22.301 2°53.589 14.3 10.2 7 20.7
2009-11-06 08:28:39 51°22.315 2°53.593 13.9 10.3 9 21
2009-11-06 08:28:44 51°22.33 2°53.596 13.6 10.3 7 20.8
2009-11-06 08:28:49 51°22.344 2°53.599 13.6 10.3 7 20.7
2009-11-06 08:28:54 51°22.358 2°53.603 13.4 10.3 9 21
2009-11-06 08:28:58 51°22.369 2°53.605 13.9 10.2 8 20.9
2009-11-06 08:29:04 51°22.386 2°53.609 14.3 10.3 8 20.7
2009-11-06 08:29:09 51°22.4 2°53.612 14 10.3 7 21
2009-11-06 08:29:14 51°22.415 2°53.615 13.6 10.4 8 21.2
2009-11-06 08:29:19 51°22.429 2°53.618 13.3 10.4 7 20.8
2009-11-06 08:29:24 51°22.443 2°53.622 13.5 10.5 7 21.2
2009-11-06 08:29:29 51°22.457 2°53.625 13.2 10.4 9 21.3
2009-11-06 08:29:34 51°22.472 2°53.628 13.9 10.5 8 21.3
2009-11-06 08:29:38 51°22.483 2°53.631 14 10.5 9 21.4
2009-11-06 08:29:44 51°22.5 2°53.635 14.8 10.5 8 21.7
2009-11-06 08:29:49 51°22.515 2°53.639 14.3 10.5 8 21.3
2009-11-06 08:29:54 51°22.529 2°53.642 13.8 10.4 9 21.9
2009-11-06 08:29:58 51°22.541 2°53.646 14.1 10.5 10 22.1
2009-11-06 08:30:04 51°22.558 2°53.648 13.2 10.6 7 22.1
2009-11-06 08:30:09 51°22.572 2°53.653 14.4 10.4 11 21.8
2009-11-06 08:30:14 51°22.587 2°53.656 14.7 10.5 8 21.4
2009-11-06 08:30:18 51°22.598 2°53.659 14.1 10.6 8 21.6
2009-11-06 08:30:24 51°22.616 2°53.663 13.8 10.5 9 21.3
2009-11-06 08:30:29 51°22.63 2°53.667 14.8 10.6 10 21.8
2009-11-06 08:30:34 51°22.644 2°53.671 14.9 10.5 8 21.5
2009-11-06 08:30:38 51°22.656 2°53.674 14.6 10.5 9 21.2
2009-11-06 08:30:44 51°22.674 2°53.678 14.6 10.6 9 21.2
2009-11-06 08:30:49 51°22.688 2°53.682 14.6 10.6 10 21.7
2009-11-06 08:30:54 51°22.702 2°53.686 14.6 10.5 9 21.1
2009-11-06 08:30:58 51°22.714 2°53.689 14.9 10.6 10 21.1
2009-11-06 08:31:04 51°22.731 2°53.693 14.8 10.6 9 21.1
2009-11-06 08:31:09 51°22.746 2°53.697 14.2 10.6 10 21.5
2009-11-06 08:31:14 51°22.76 2°53.7 13.9 10.6 8 21.7
2009-11-06 08:31:19 51°22.775 2°53.704 14 10.6 9 21.8
2009-11-06 08:31:24 51°22.789 2°53.708 13.8 10.6 10 21.6
2009-11-06 08:31:29 51°22.804 2°53.711 14.5 10.6 7 21.5
2009-11-06 08:31:34 51°22.818 2°53.715 13.9 10.5 9 21.8
2009-11-06 08:31:38 51°22.83 2°53.718 13.9 10.6 10 21.2
2009-11-06 08:31:44 51°22.847 2°53.722 14.3 10.5 8 21
2009-11-06 08:31:49 51°22.861 2°53.726 15.3 10.5 9 21
2009-11-06 08:31:54 51°22.876 2°53.73 14.4 10.5 8 20.6
2009-11-06 08:31:58 51°22.887 2°53.734 14.8 10.4 10 20.7
2009-11-06 08:32:04 51°22.904 2°53.738 14.6 10.5 8 20.4
2009-11-06 08:32:09 51°22.919 2°53.741 13.9 10.5 8 19.7
2009-11-06 08:32:14 51°22.933 2°53.745 13.9 10.5 8 20.2
2009-11-06 08:32:18 51°22.944 2°53.748 15 10.5 8 20.1
2009-11-06 08:32:24 51°22.962 2°53.753 14.7 10.4 10 19.2
2009-11-06 08:32:29 51°22.976 2°53.756 13.6 10.5 8 17.9
2009-11-06 08:32:34 51°22.99 2°53.76 14.2 10.5 10 16
2009-11-06 08:32:39 51°23.004 2°53.763 13.8 10.4 9 20.5
2009-11-06 08:32:44 51°23.019 2°53.767 14.5 10.4 10 20.5
2009-11-06 08:32:49 51°23.033 2°53.77 15 10.5 8 19.4
2009-11-06 08:32:54 51°23.047 2°53.775 14.7 10.4 11 17.9
2009-11-06 08:32:58 51°23.058 2°53.778 14.2 10.4 8 20.5
2009-11-06 08:33:04 51°23.075 2°53.783 14.6 10.4 11 20.2
2009-11-06 08:33:09 51°23.09 2°53.786 13.8 10.4 9 20.5
2009-11-06 08:33:14 51°23.104 2°53.791 14.6 10.4 11 19.7
2009-11-06 08:33:18 51°23.115 2°53.792 14.6 10.5 6 20.9
2009-11-06 08:33:24 51°23.132 2°53.799 15.2 10.4 13 20.9
2009-11-06 08:33:29 51°23.146 2°53.801 14.3 10.4 6 20.4
2009-11-06 08:33:34 51°23.16 2°53.806 13.7 10.3 11 19.3
2009-11-06 08:33:39 51°23.174 2°53.809 13.8 10.4 8 18.8
2009-11-06 08:33:44 51°23.189 2°53.813 14.5 10.4 10 20.4
2009-11-06 08:33:49 51°23.203 2°53.817 13.9 10.4 10 20.3
2009-11-06 08:33:54 51°23.217 2°53.821 14.4 10.4 10 20.4
2009-11-06 08:33:59 51°23.231 2°53.825 15.5 10.4 11 19.7
2009-11-06 08:34:04 51°23.245 2°53.828 14 10.4 7 19
2009-11-06 08:34:09 51°23.259 2°53.832 13.5 10.3 10 19.1
2009-11-06 08:34:14 51°23.274 2°53.835 13.9 10.4 8 19.1
2009-11-06 08:34:18 51°23.285 2°53.839 14.1 10.3 11 18.8
2009-11-06 08:34:24 51°23.302 2°53.842 12.9 10.3 9 18.4
2009-11-06 08:34:29 51°23.316 2°53.847 14.5 10.3 9 19
2009-11-06 08:34:34 51°23.33 2°53.85 13.1 10.3 8 19.4
2009-11-06 08:34:38 51°23.341 2°53.852 12.8 10.3 10 19
2009-11-06 08:34:44 51°23.358 2°53.856 13.7 10.3 7 17.8
2009-11-06 08:34:49 51°23.372 2°53.86 13.6 10.3 10 18.7
2009-11-06 08:34:54 51°23.387 2°53.864 14.4 10.3 10 19.2
2009-11-06 08:34:58 51°23.398 2°53.866 13.4 10.2 10 19.5
2009-11-06 08:35:04 51°23.414 2°53.871 14.4 10.2 11 19.3
2009-11-06 08:35:09 51°23.429 2°53.874 14.7 10.2 6 19.1
2009-11-06 08:35:14 51°23.442 2°53.879 14.3 10.2 12 19.2
2009-11-06 08:35:18 51°23.454 2°53.88 13.7 10.3 5 19
2009-11-06 08:35:24 51°23.47 2°53.886 13.5 10.3 13 18.9
2009-11-06 08:35:29 51°23.484 2°53.889 14.6 10.3 7 18.6
2009-11-06 08:35:34 51°23.499 2°53.892 13.1 10.2 8 17.9
2009-11-06 08:35:38 51°23.51 2°53.895 14 10.3 8 16.9
2009-11-06 08:35:44 51°23.527 2°53.899 13.8 10.3 7 19.3
2009-11-06 08:35:49 51°23.541 2°53.903 13.7 10.2 9 19.2
2009-11-06 08:35:54 51°23.555 2°53.906 14.4 10.3 8 19.4
2009-11-06 08:35:58 51°23.566 2°53.909 14.6 10.2 11 19.5
2009-11-06 08:36:04 51°23.583 2°53.914 15.2 10.3 9 19.2
2009-11-06 08:36:09 51°23.597 2°53.918 14.7 10.4 10 18.9
2009-11-06 08:36:14 51°23.611 2°53.922 14.2 10.3 10 18.1
2009-11-06 08:36:19 51°23.625 2°53.925 14.7 10.3 9 17.1
2009-11-06 08:36:24 51°23.639 2°53.929 13.9 10.3 10 19.5
2009-11-06 08:36:29 51°23.653 2°53.933 14.6 10.3 10 18.9
2009-11-06 08:36:34 51°23.667 2°53.936 14.9 10.3 9 18.9
2009-11-06 08:36:38 51°23.678 2°53.94 13.9 10.3 10 19.6
2009-11-06 08:36:44 51°23.695 2°53.944 14.1 10.3 9 19.1
2009-11-06 08:36:49 51°23.709 2°53.948 15 10.3 10 18.7
2009-11-06 08:36:54 51°23.723 2°53.951 14.9 10.3 9 17.7
2009-11-06 08:36:58 51°23.735 2°53.955 14.6 10.3 9 16.7
2009-11-06 08:37:04 51°23.751 2°53.959 14.4 10.3 8 16.3
2009-11-06 08:37:09 51°23.766 2°53.962 14.4 10.2 9 16.9
2009-11-06 08:37:14 51°23.779 2°53.966 14.7 10.2 9 19.2
2009-11-06 08:37:19 51°23.793 2°53.969 14.8 10.2 9 20.2
2009-11-06 08:37:24 51°23.808 2°53.973 14.7 10.2 10 20.2
2009-11-06 08:37:29 51°23.822 2°53.977 15.2 10.2 8 20.1
2009-11-06 08:37:34 51°23.835 2°53.981 14.6 10.2 10 19.9
2009-11-06 08:37:38 51°23.847 2°53.984 14.6 10.3 8 19.8
2009-11-06 08:37:44 51°23.864 2°53.987 13.9 10.3 8 19.6
2009-11-06 08:37:49 51°23.878 2°53.991 14.2 10.2 9 19.9
2009-11-06 08:37:54 51°23.892 2°53.995 14.6 10.2 10 20.1
2009-11-06 08:37:58 51°23.903 2°53.998 14.7 10.3 9 20.6
2009-11-06 08:38:04 51°23.92 2°54.002 14.6 10.3 10 20.5
2009-11-06 08:38:09 51°23.934 2°54.006 15.1 10.3 9 20.6
2009-11-06 08:38:14 51°23.948 2°54.009 13.9 10.3 8 20.4
2009-11-06 08:38:19 51°23.962 2°54.013 14 10.3 8 20.3
2009-11-06 08:38:24 51°23.976 2°54.016 13.7 10.2 10 20.2
2009-11-06 08:38:29 51°23.99 2°54.019 13.8 10.2 8 20
2009-11-06 08:38:34 51°24.004 2°54.023 13.7 10.2 8 20.4
2009-11-06 08:38:39 51°24.018 2°54.027 13.9 10.3 10 20.4
2009-11-06 08:38:44 51°24.032 2°54.03 14.8 10.2 9 20.1
2009-11-06 08:38:49 51°24.046 2°54.034 13.7 10.2 11 20.6
2009-11-06 08:38:54 51°24.06 2°54.038 15.1 10.2 11 20.3
2009-11-06 08:38:58 51°24.072 2°54.039 14.6 10.3 8 20.3
2009-11-06 08:39:04 51°24.089 2°54.044 14.5 10.4 7 20.5
2009-11-06 08:39:09 51°24.103 2°54.047 13.5 10.4 8 21
2009-11-06 08:39:14 51°24.117 2°54.051 13.8 10.3 9 20.9
2009-11-06 08:39:18 51°24.128 2°54.053 13.9 10.2 8 20.4
2009-11-06 08:39:24 51°24.145 2°54.057 14.5 10.2 7 19.6
2009-11-06 08:39:29 51°24.159 2°54.06 12.7 10.3 7 19.1
2009-11-06 08:39:34 51°24.174 2°54.062 10.8 10.3 5 20.2
2009-11-06 08:39:38 51°24.185 2°54.063 10.9 10.4 4 20.9
2009-11-06 08:39:44 51°24.202 2°54.065 9.8 10.4 4 20.7
2009-11-06 08:39:49 51°24.217 2°54.067 10.1 10.5 4 20.6
2009-11-06 08:39:54 51°24.231 2°54.068 9.5 10.5 3 20.5
2009-11-06 08:39:58 51°24.243 2°54.069 9.5 10.5 3 20.3
2009-11-06 08:40:04 51°24.26 2°54.07 8.4 10.4 4 20.4
2009-11-06 08:40:09 51°24.275 2°54.072 9.5 10.4 3 20.2
2009-11-06 08:40:14 51°24.289 2°54.072 8.5 10.5 1 19.4
2009-11-06 08:40:19 51°24.304 2°54.074 8 10.4 3 18.5
2009-11-06 08:40:24 51°24.318 2°54.075 7.7 10.5 3 19.7
2009-11-06 08:40:29 51°24.333 2°54.075 7.4 10.4 1 19.7
2009-11-06 08:40:34 51°24.347 2°54.076 7 10.4 1 19.2
2009-11-06 08:40:38 51°24.359 2°54.077 7.2 10.4 -999 19.2
2009-11-06 08:40:44 51°24.376 2°54.076 6.3 10.4 3 19
2009-11-06 08:40:49 51°24.39 2°54.077 7.2 10.4 1 17.2
2009-11-06 08:40:54 51°24.405 2°54.077 6.9 10.4 1 16.5
2009-11-06 08:40:58 51°24.416 2°54.079 7.5 10.4 3 17.3
2009-11-06 08:41:04 51°24.434 2°54.078 6.6 10.4 359 17.4
2009-11-06 08:41:09 51°24.448 2°54.08 7.3 10.3 4 17.3
2009-11-06 08:41:14 51°24.462 2°54.081 7.9 10.3 1 17.3
2009-11-06 08:41:18 51°24.473 2°54.081 7 10.3 2 17.6
2009-11-06 08:41:24 51°24.491 2°54.083 7.8 10.3 3 17.4
2009-11-06 08:41:29 51°24.505 2°54.084 8.6 10.4 4 16.9
2009-11-06 08:41:34 51°24.519 2°54.084 7.7 10.4 -999 14.9
2009-11-06 08:41:38 51°24.531 2°54.086 7.9 10.3 4 14.3
2009-11-06 08:41:44 51°24.548 2°54.087 8.1 10.3 1 15.6
2009-11-06 08:41:49 51°24.562 2°54.087 7.9 10.2 3 16.4
2009-11-06 08:41:54 51°24.576 2°54.088 8 10.3 2 16.8
2009-11-06 08:41:58 51°24.588 2°54.09 8.5 10.3 5 16.7
2009-11-06 08:42:04 51°24.605 2°54.091 9.4 10.3 2 16.6
2009-11-06 08:42:09 51°24.62 2°54.093 8.1 10.4 4 16.5
2009-11-06 08:42:14 51°24.634 2°54.094 8.9 10.3 2 16.4
2009-11-06 08:42:18 51°24.645 2°54.095 8.6 10.2 4 16.5
2009-11-06 08:42:24 51°24.662 2°54.096 8.6 10.3 1 16.4
2009-11-06 08:42:29 51°24.677 2°54.097 7.5 10.3 3 15.5
2009-11-06 08:42:34 51°24.691 2°54.099 8.9 10.2 5 16.1
2009-11-06 08:42:39 51°24.705 2°54.099 8.3 10.4 -999 15.1
2009-11-06 08:42:44 51°24.719 2°54.101 7.3 10.3 3 15.1
2009-11-06 08:42:49 51°24.734 2°54.102 8 10.3 4 16.6
2009-11-06 08:42:54 51°24.748 2°54.103 8.1 10.4 3 16.8
2009-11-06 08:42:59 51°24.762 2°54.104 8.7 10.4 2 15.9
2009-11-06 08:43:04 51°24.777 2°54.105 8.2 10.3 4 16.3
2009-11-06 08:43:09 51°24.791 2°54.107 8 10.4 5 16.4
2009-11-06 08:43:14 51°24.805 2°54.107 9.1 10.4 1 16.5
2009-11-06 08:43:18 51°24.817 2°54.108 8.1 10.4 4 16.8
2009-11-06 08:43:24 51°24.834 2°54.11 8.3 10.4 1 17.3
2009-11-06 08:43:29 51°24.848 2°54.111 8 10.3 3 17.6
2009-11-06 08:43:34 51°24.863 2°54.112 8.1 10.3 3 17.9
2009-11-06 08:43:38 51°24.874 2°54.112 8 10.4 2 18.2
2009-11-06 08:43:44 51°24.892 2°54.113 7.9 10.4 1 18.1
2009-11-06 08:43:49 51°24.906 2°54.114 7.3 10.5 1 17.9
2009-11-06 08:43:54 51°24.921 2°54.115 7.2 10.4 3 16.1
2009-11-06 08:43:58 51°24.932 2°54.116 7.3 10.5 2 17.8
2009-11-06 08:44:04 51°24.95 2°54.116 8.1 10.5 1 18.6
2009-11-06 08:44:09 51°24.964 2°54.118 8.2 10.4 5 18.8
2009-11-06 08:44:14 51°24.979 2°54.119 7.9 10.4 2 19.1
2009-11-06 08:44:18 51°24.99 2°54.12 7.2 10.4 2 19.6
2009-11-06 08:44:24 51°25.007 2°54.121 7.6 10.4 4 19.7
2009-11-06 08:44:29 51°25.022 2°54.122 8.1 10.5 2 19.7
2009-11-06 08:44:34 51°25.036 2°54.124 7.5 10.5 3 19.8
2009-11-06 08:44:39 51°25.051 2°54.125 7.9 10.4 4 19.5
2009-11-06 08:44:44 51°25.065 2°54.126 8.6 10.3 3 19.8
2009-11-06 08:44:49 51°25.08 2°54.127 8.7 10.4 2 19.7
2009-11-06 08:44:54 51°25.094 2°54.129 8.3 10.5 3 20.1
2009-11-06 08:44:58 51°25.106 2°54.129 7.3 10.4 3 20.2
2009-11-06 08:45:04 51°25.123 2°54.131 7.8 10.4 4 20.5
2009-11-06 08:45:09 51°25.137 2°54.131 8.1 10.4 1 20.5
2009-11-06 08:45:14 51°25.152 2°54.133 8 10.5 4 20.5
2009-11-06 08:45:18 51°25.163 2°54.134 8.6 10.4 3 20.6
2009-11-06 08:45:24 51°25.181 2°54.136 8.6 10.5 5 20.7
2009-11-06 08:45:29 51°25.195 2°54.138 9.3 10.5 3 20.9
2009-11-06 08:45:34 51°25.21 2°54.138 7.3 10.5 1 20.6
2009-11-06 08:45:38 51°25.221 2°54.14 8.4 10.4 3 20.6
2009-11-06 08:45:44 51°25.239 2°54.141 8.5 10.4 4 20.2
2009-11-06 08:45:49 51°25.253 2°54.143 8.6 10.4 5 20.3
2009-11-06 08:45:54 51°25.268 2°54.144 9.1 10.5 3 20.2
2009-11-06 08:45:58 51°25.279 2°54.146 8.3 10.4 5 20.2
2009-11-06 08:46:04 51°25.296 2°54.147 8.1 10.4 3 20.1
2009-11-06 08:46:09 51°25.311 2°54.149 8.7 10.4 3 19.9
2009-11-06 08:46:14 51°25.325 2°54.15 8.8 10.4 4 19.7
2009-11-06 08:46:18 51°25.336 2°54.152 8.7 10.5 4 20.1
2009-11-06 08:46:24 51°25.354 2°54.154 8.8 10.4 5 19.7
2009-11-06 08:46:29 51°25.368 2°54.155 9.2 10.3 2 19.5
2009-11-06 08:46:34 51°25.382 2°54.157 9.1 10.3 5 19.7
2009-11-06 08:46:38 51°25.394 2°54.158 7.4 10.3 1 19.8
2009-11-06 08:46:44 51°25.411 2°54.159 7.6 10.3 3 19.2
2009-11-06 08:46:49 51°25.425 2°54.161 8.1 10.3 4 18.4
2009-11-06 08:46:54 51°25.44 2°54.161 7.6 10.3 3 18.8
2009-11-06 08:46:58 51°25.451 2°54.163 8.7 10.3 3 19.2
2009-11-06 08:47:04 51°25.468 2°54.164 8.1 10.3 3 19.3
2009-11-06 08:47:09 51°25.482 2°54.165 8.9 10.4 3 19.6
2009-11-06 08:47:14 51°25.497 2°54.167 8.1 10.3 5 19.7
2009-11-06 08:47:19 51°25.511 2°54.168 8 10.3 2 19.7
2009-11-06 08:47:24 51°25.525 2°54.168 7.3 10.4 4 19.5
2009-11-06 08:47:29 51°25.54 2°54.171 8.3 10.3 5 19.8
2009-11-06 08:47:34 51°25.554 2°54.171 7.7 10.4 -999 19.7
2009-11-06 08:47:38 51°25.565 2°54.174 9.6 10.2 5 19.6
2009-11-06 08:47:44 51°25.582 2°54.174 6.6 10.2 2 19.8
2009-11-06 08:47:49 51°25.596 2°54.177 9.2 10.1 5 19.3
2009-11-06 08:47:54 51°25.611 2°54.177 9 10.3 -999 19.3
2009-11-06 08:47:58 51°25.622 2°54.179 8.3 10.2 6 19.3
2009-11-06 08:48:04 51°25.639 2°54.18 9.2 10.3 2 19.1
2009-11-06 08:48:09 51°25.653 2°54.182 8.7 10.2 4 20
2009-11-06 08:48:14 51°25.667 2°54.182 7.7 10.2 3 20.1
2009-11-06 08:48:18 51°25.679 2°54.184 9.2 10.2 4 20.8
2009-11-06 08:48:24 51°25.696 2°54.185 8.1 10.3 2 20.9
2009-11-06 08:48:29 51°25.71 2°54.186 8.2 10.3 1 20.5
2009-11-06 08:48:34 51°25.724 2°54.187 7.6 10.3 3 20.9
2009-11-06 08:48:38 51°25.736 2°54.188 8 10.2 1 21
2009-11-06 08:48:44 51°25.753 2°54.19 8.6 10.2 4 20.8
2009-11-06 08:48:49 51°25.767 2°54.191 8 10.3 3 19.8
2009-11-06 08:48:54 51°25.781 2°54.192 8.5 10.3 3 20.7
2009-11-06 08:48:59 51°25.795 2°54.194 8.7 10.3 5 21
2009-11-06 08:49:04 51°25.81 2°54.195 9.4 10.3 2 20.5
2009-11-06 08:49:09 51°25.824 2°54.196 7.8 10.4 4 19.8
2009-11-06 08:49:14 51°25.839 2°54.197 7.7 10.4 2 20.6
2009-11-06 08:49:19 51°25.853 2°54.199 8.3 10.3 5 20.9
2009-11-06 08:49:24 51°25.867 2°54.199 8 10.4 1 20.9
2009-11-06 08:49:29 51°25.881 2°54.201 8.7 10.3 5 21.4
2009-11-06 08:49:34 51°25.896 2°54.202 7.7 10.2 1 21.8
2009-11-06 08:49:38 51°25.907 2°54.204 9.6 10.3 6 21.4
2009-11-06 08:49:44 51°25.924 2°54.204 8.4 10.4 1 20.7
2009-11-06 08:49:49 51°25.938 2°54.206 8.8 10.2 3 20.3
2009-11-06 08:49:54 51°25.953 2°54.206 8 10.3 -999 20
2009-11-06 08:49:58 51°25.964 2°54.209 8.7 10.2 5 20.1
2009-11-06 08:50:04 51°25.981 2°54.208 7.4 10.3 4 20.1
2009-11-06 08:50:09 51°25.995 2°54.21 9 10.2 4 20.2
2009-11-06 08:50:14 51°26.01 2°54.21 8.1 10.3 -999 20.6
2009-11-06 08:50:18 51°26.021 2°54.211 7.1 10.3 1 20.7
2009-11-06 08:50:23 51°26.035 2°54.212 8 10.2 4 20.8
2009-11-06 08:50:29 51°26.052 2°54.213 8.1 10.4 1 20.9
2009-11-06 08:50:34 51°26.067 2°54.213 7.3 10.4 -999 20.8
2009-11-06 08:50:39 51°26.081 2°54.214 8 10.3 3 20.6
2009-11-06 08:50:44 51°26.096 2°54.214 7.7 10.4 359 20.7
2009-11-06 08:50:49 51°26.11 2°54.216 8.2 10.3 3 21.6
2009-11-06 08:50:54 51°26.124 2°54.216 7.6 10.4 1 22
2009-11-06 08:50:58 51°26.136 2°54.217 8.1 10.4 3 22.4
2009-11-06 08:51:04 51°26.153 2°54.218 8.5 10.3 2 22.4
2009-11-06 08:51:09 51°26.167 2°54.22 8.5 10.4 3 22.3
2009-11-06 08:51:14 51°26.182 2°54.221 8.8 10.3 3 22.5
2009-11-06 08:51:19 51°26.196 2°54.222 8.8 10.3 3 22.6
2009-11-06 08:51:24 51°26.21 2°54.224 10 10.2 5 22.6
2009-11-06 08:51:29 51°26.224 2°54.225 9.7 10.3 3 22.4
2009-11-06 08:51:34 51°26.239 2°54.227 10.2 10.3 5 22.5
2009-11-06 08:51:39 51°26.253 2°54.229 10.3 10.3 3 22.8
2009-11-06 08:51:44 51°26.267 2°54.231 10 10.3 6 23.1
2009-11-06 08:51:49 51°26.282 2°54.231 10.1 10.4 2 23.4
2009-11-06 08:51:54 51°26.296 2°54.234 10.6 10.3 7 23.6
2009-11-06 08:51:59 51°26.311 2°54.234 9.5 10.3 2 24
2009-11-06 08:52:04 51°26.325 2°54.236 9.2 10.3 5 23.9
2009-11-06 08:52:09 51°26.339 2°54.237 10.2 10.3 2 23.6
2009-11-06 08:52:14 51°26.353 2°54.238 9.3 10.2 3 24.2
2009-11-06 08:52:19 51°26.367 2°54.24 9.7 10.3 5 24.5
2009-11-06 08:52:24 51°26.382 2°54.241 9.4 10.4 2 24.5
2009-11-06 08:52:29 51°26.396 2°54.243 9.6 10.3 5 24.3
2009-11-06 08:52:34 51°26.41 2°54.244 10 10.3 2 24.3
2009-11-06 08:52:38 51°26.422 2°54.246 9.2 10.2 5 24.8
2009-11-06 08:52:44 51°26.439 2°54.248 10.5 10.2 2 24.9
2009-11-06 08:52:49 51°26.453 2°54.249 9 10.3 4 25.7
2009-11-06 08:52:54 51°26.467 2°54.25 9 10.2 3 25.5
2009-11-06 08:52:58 51°26.479 2°54.25 9.4 10.3 2 26.5
2009-11-06 08:53:03 51°26.493 2°54.252 9.1 10.2 4 27